Main page
METAR-TAF:

METAR-TAF

Airports :

Dimapur Airport

Dimapur, India

latitude: 25-53-02N, longitude: 093-46-16E, elevation: 148 m

METAR: missing

Time: 05:31 (00:01 UTC)

Forecast

The report was made 1 hour and 1 minutes ago, at 23:00 UTC
Forecast valid from 20 at 00 UTC to 20 at 09 UTC
Wind kt from the North
Visibility: 2000 m
Few clouds at a height of 2000 ft
Few clouds at a height of 2500 ft, Cumulonimbus.
Scattered clouds at a height of 10000 ft
mist
Becoming
from 20 at 04 UTC to 20 at 06 UTC
Wind 5 kt from the North/Northeast
Visibility: 3000 m
Few clouds at a height of 2000 ft
Scattered clouds at a height of 10000 ft
haze,

TAF: VEMR 192300Z 2000/2009 00000KT 2000 BR FEW020 FEW025CB SCT100 BECMG 2004/2006 02005KT 3000 HZ FEW020 SCT100

Weather observations and forecasts of more than 4000 airports (METAR and TAF reports).

The available stations are represented by yellow and red dots on the map.

Hover mouse over dot to see the name of the station.

Then click to see weather observations and forecasts.

To change the map : click on the green buttons with a black cross to zoom in, on the green button with a dash to zoom out, or on the green arrows for adjacent maps.


METAR-TAF: